Time;durP1;ratioP1;P1;durP2;ratioP2;P2;SDS_P1;SDS_P2;PMS_P1;PMS_P2;Temp;Humidity;BMP_temperature;BMP_pressure;BME280_temperature;BME280_humidity;BME280_pressure;Samples;Min_cycle;Max_cycle;Signal;HPM_P1;HPM_P2
2023/12/19 00:01:58;;;;;;;49.50;23.53;;;;;;;;;;5072881;28;20361;-30
2023/12/19 00:04:23;;;;;;;62.33;23.33;;;;;;;;;;5073439;28;20305;-33
2023/12/19 00:06:48;;;;;;;56.92;23.05;;;;;;;;;;5073160;28;20676;-32
2023/12/19 00:09:14;;;;;;;50.57;23.10;;;;;;;;;;5073028;28;20372;-32
2023/12/19 00:11:39;;;;;;;48.20;22.63;;;;;;;;;;5073257;28;20294;-31
2023/12/19 00:14:05;;;;;;;46.58;23.00;;;;;;;;;;5054976;28;20378;-32
2023/12/19 00:16:32;;;;;;;51.10;23.00;;;;;;;;;;5072882;28;20016;-32
2023/12/19 00:18:57;;;;;;;46.03;21.33;;;;;;;;;;5073207;28;20398;-32
2023/12/19 00:21:23;;;;;;;44.00;21.23;;;;;;;;;;5075994;28;20025;-32
2023/12/19 00:23:48;;;;;;;43.10;21.20;;;;;;;;;;5077232;28;20246;-31
2023/12/19 00:26:15;;;;;;;50.13;21.10;;;;;;;;;;5076855;28;20350;-32
2023/12/19 00:28:41;;;;;;;51.58;21.77;;;;;;;;;;5076560;28;20027;-32
2023/12/19 00:31:06;;;;;;;46.65;21.83;;;;;;;;;;5077277;28;20054;-33
2023/12/19 00:33:32;;;;;;;47.67;21.90;;;;;;;;;;5076684;28;20035;-32
2023/12/19 00:35:57;;;;;;;50.22;22.13;;;;;;;;;;5076231;28;20020;-32
2023/12/19 00:38:22;;;;;;;47.42;22.67;;;;;;;;;;5076324;28;20090;-31
2023/12/19 00:40:48;;;;;;;53.90;23.45;;;;;;;;;;5076888;28;20021;-32
2023/12/19 00:43:13;;;;;;;54.85;22.58;;;;;;;;;;5076764;28;20017;-32
2023/12/19 00:45:38;;;;;;;54.05;23.23;;;;;;;;;;5076549;28;20052;-31
2023/12/19 00:48:03;;;;;;;52.43;23.10;;;;;;;;;;5074901;28;20455;-32
2023/12/19 00:50:29;;;;;;;58.15;24.45;;;;;;;;;;5076297;28;20293;-32
2023/12/19 00:52:54;;;;;;;54.17;23.43;;;;;;;;;;5076107;28;20414;-31
2023/12/19 00:55:19;;;;;;;52.83;23.20;;;;;;;;;;5076567;28;20265;-31
2023/12/19 00:57:45;;;;;;;47.43;21.60;;;;;;;;;;5076016;28;20748;-31
2023/12/19 01:00:10;;;;;;;52.75;22.88;;;;;;;;;;5076245;28;20263;-32
2023/12/19 01:02:35;;;;;;;58.75;24.05;;;;;;;;;;5076173;28;20041;-31
2023/12/19 01:05:00;;;;;;;57.97;23.40;;;;;;;;;;5075701;28;20081;-32
2023/12/19 01:07:26;;;;;;;56.20;24.38;;;;;;;;;;5074912;28;20266;-32
2023/12/19 01:09:51;;;;;;;61.42;23.13;;;;;;;;;;5075823;28;20020;-31
2023/12/19 01:12:18;;;;;;;53.13;23.88;;;;;;;;;;5075964;28;20020;-32
2023/12/19 01:14:43;;;;;;;65.82;24.90;;;;;;;;;;5075614;28;20100;-31
2023/12/19 01:17:08;;;;;;;61.40;24.73;;;;;;;;;;5075638;28;20107;-32
2023/12/19 01:19:33;;;;;;;63.63;25.10;;;;;;;;;;5075660;28;20749;-32
2023/12/19 01:21:58;;;;;;;67.67;24.63;;;;;;;;;;5076183;28;20243;-31
2023/12/19 01:24:24;;;;;;;56.35;24.92;;;;;;;;;;5075473;28;20781;-31
2023/12/19 01:26:51;;;;;;;61.90;23.93;;;;;;;;;;5076073;28;20020;-31
2023/12/19 01:29:16;;;;;;;58.30;23.42;;;;;;;;;;5075772;28;20345;-31
2023/12/19 01:31:41;;;;;;;57.33;23.30;;;;;;;;;;5074386;28;20498;-33
2023/12/19 01:34:07;;;;;;;58.33;24.83;;;;;;;;;;5075933;28;20028;-32
2023/12/19 01:36:32;;;;;;;54.60;23.73;;;;;;;;;;5075305;28;20811;-31
2023/12/19 01:38:57;;;;;;;51.50;22.58;;;;;;;;;;5075501;28;20354;-32
2023/12/19 01:41:22;;;;;;;56.67;22.77;;;;;;;;;;5075178;28;20091;-31
2023/12/19 01:43:47;;;;;;;48.72;22.77;;;;;;;;;;5075500;28;20255;-32
2023/12/19 01:46:15;;;;;;;45.00;21.58;;;;;;;;;;5075426;28;20565;-32
2023/12/19 01:48:40;;;;;;;46.40;21.90;;;;;;;;;;5075119;28;20073;-32
2023/12/19 01:51:05;;;;;;;44.83;20.65;;;;;;;;;;5075346;28;20028;-31
2023/12/19 01:53:31;;;;;;;45.38;21.83;;;;;;;;;;5075503;28;20178;-33
2023/12/19 01:55:56;;;;;;;41.58;20.35;;;;;;;;;;5075033;28;20032;-32
2023/12/19 01:58:22;;;;;;;45.00;21.02;;;;;;;;;;5073591;28;20455;-32
2023/12/19 02:00:47;;;;;;;38.03;18.48;;;;;;;;;;5074854;28;20020;-32
2023/12/19 02:03:12;;;;;;;40.80;19.35;;;;;;;;;;5074769;28;20051;-31
2023/12/19 02:05:39;;;;;;;41.03;19.37;;;;;;;;;;5074725;28;20021;-32
2023/12/19 02:08:04;;;;;;;41.33;20.27;;;;;;;;;;5074582;28;20351;-32
2023/12/19 02:10:29;;;;;;;43.60;20.02;;;;;;;;;;5074868;28;20460;-32
2023/12/19 02:12:55;;;;;;;45.13;20.70;;;;;;;;;;5074869;28;20028;-32
2023/12/19 02:15:20;;;;;;;42.65;19.35;;;;;;;;;;5074730;28;20385;-31
2023/12/19 02:17:45;;;;;;;44.40;19.52;;;;;;;;;;5074462;28;20047;-32
2023/12/19 02:20:10;;;;;;;46.63;22.13;;;;;;;;;;5074702;28;20055;-32
2023/12/19 02:22:36;;;;;;;47.65;21.75;;;;;;;;;;5074335;28;20021;-31
2023/12/19 02:25:01;;;;;;;48.33;21.55;;;;;;;;;;5074392;28;20024;-31
2023/12/19 02:27:26;;;;;;;45.47;21.45;;;;;;;;;;5074789;28;20375;-32
2023/12/19 02:29:51;;;;;;;43.88;20.90;;;;;;;;;;5074298;28;20056;-32
2023/12/19 02:32:16;;;;;;;39.97;20.47;;;;;;;;;;5074192;28;20028;-31
2023/12/19 02:34:42;;;;;;;42.17;20.92;;;;;;;;;;5074378;28;20287;-32
2023/12/19 02:37:07;;;;;;;42.63;20.57;;;;;;;;;;5074015;28;20024;-32
2023/12/19 02:39:32;;;;;;;46.07;20.43;;;;;;;;;;5074602;28;20308;-32
2023/12/19 02:41:57;;;;;;;43.88;21.08;;;;;;;;;;5073907;28;20337;-32
2023/12/19 02:44:23;;;;;;;46.70;20.93;;;;;;;;;;5074062;28;20016;-32
2023/12/19 02:46:48;;;;;;;40.17;20.73;;;;;;;;;;5072644;28;20266;-32
2023/12/19 02:49:14;;;;;;;42.27;20.13;;;;;;;;;;5074404;28;20282;-31
2023/12/19 02:51:40;;;;;;;38.92;20.02;;;;;;;;;;5073872;28;20296;-32
2023/12/19 02:54:05;;;;;;;48.17;20.53;;;;;;;;;;5073838;28;20422;-32
2023/12/19 02:56:32;;;;;;;40.95;20.45;;;;;;;;;;5074478;28;20323;-33
2023/12/19 02:58:57;;;;;;;41.08;20.45;;;;;;;;;;5074024;28;20016;-32
2023/12/19 03:01:22;;;;;;;46.70;20.87;;;;;;;;;;5073696;28;20375;-33
2023/12/19 03:03:47;;;;;;;41.05;20.40;;;;;;;;;;5073685;28;20429;-32
2023/12/19 03:06:13;;;;;;;47.40;21.17;;;;;;;;;;5073875;28;20028;-32
2023/12/19 03:08:38;;;;;;;46.13;19.85;;;;;;;;;;5073540;28;20020;-32
2023/12/19 03:11:04;;;;;;;49.63;20.63;;;;;;;;;;5073949;28;20024;-32
2023/12/19 03:13:29;;;;;;;45.17;20.73;;;;;;;;;;5074343;28;20013;-32
2023/12/19 03:15:54;;;;;;;45.83;21.65;;;;;;;;;;5073999;28;20108;-32
2023/12/19 03:18:24;;;;;;;46.53;20.35;;;;;;;;;;5074003;28;20024;-32
2023/12/19 03:20:51;;;;;;;46.63;20.52;;;;;;;;;;5073761;28;20377;-32
2023/12/19 03:23:16;;;;;;;43.15;20.55;;;;;;;;;;5073476;28;20099;-32
2023/12/19 03:25:42;;;;;;;45.47;21.47;;;;;;;;;;5073919;28;20040;-32
2023/12/19 03:28:07;;;;;;;51.00;20.80;;;;;;;;;;5073472;28;20251;-32
2023/12/19 03:30:32;;;;;;;51.47;21.10;;;;;;;;;;5073441;28;20258;-32
2023/12/19 03:32:57;;;;;;;47.63;21.43;;;;;;;;;;5073437;28;20021;-33
2023/12/19 03:35:23;;;;;;;52.23;21.93;;;;;;;;;;5073278;28;20282;-32
2023/12/19 03:37:50;;;;;;;47.30;22.10;;;;;;;;;;5073654;28;20255;-32
2023/12/19 03:40:15;;;;;;;50.30;21.23;;;;;;;;;;5073286;28;20412;-32
2023/12/19 03:42:41;;;;;;;52.25;21.75;;;;;;;;;;5073551;28;20051;-31
2023/12/19 03:45:06;;;;;;;57.03;21.50;;;;;;;;;;5073273;28;20009;-32
2023/12/19 03:47:31;;;;;;;45.88;21.08;;;;;;;;;;5073536;28;20376;-31
2023/12/19 03:49:57;;;;;;;44.30;20.80;;;;;;;;;;5073834;28;20013;-31
2023/12/19 03:52:23;;;;;;;47.53;21.33;;;;;;;;;;5073681;28;20258;-32
2023/12/19 03:54:48;;;;;;;51.15;21.30;;;;;;;;;;5074081;28;20259;-32
2023/12/19 03:57:14;;;;;;;41.13;18.95;;;;;;;;;;5077391;28;20021;-32
2023/12/19 03:59:41;;;;;;;46.50;19.63;;;;;;;;;;5077679;28;20016;-32
2023/12/19 04:02:06;;;;;;;45.70;20.13;;;;;;;;;;5077704;28;20335;-31
2023/12/19 04:04:31;;;;;;;45.37;20.77;;;;;;;;;;5077709;28;20105;-32
2023/12/19 04:06:56;;;;;;;39.57;19.10;;;;;;;;;;5076964;28;20263;-31
2023/12/19 04:09:22;;;;;;;38.00;19.52;;;;;;;;;;5077225;28;20403;-32
2023/12/19 04:11:47;;;;;;;36.25;17.75;;;;;;;;;;5077488;28;20371;-34
2023/12/19 04:14:13;;;;;;;41.63;19.63;;;;;;;;;;5076907;28;20020;-32
2023/12/19 04:16:38;;;;;;;42.17;18.23;;;;;;;;;;5077336;28;20032;-33
2023/12/19 04:19:03;;;;;;;43.60;18.60;;;;;;;;;;5076778;28;20460;-31
2023/12/19 04:21:29;;;;;;;40.50;18.92;;;;;;;;;;5076774;28;20247;-32
2023/12/19 04:23:54;;;;;;;39.50;18.53;;;;;;;;;;5076699;28;20021;-31
2023/12/19 04:26:19;;;;;;;34.13;17.30;;;;;;;;;;5076692;28;20247;-32
2023/12/19 04:28:45;;;;;;;35.05;17.45;;;;;;;;;;5077738;28;20316;-33
2023/12/19 04:31:10;;;;;;;28.55;16.40;;;;;;;;;;5076456;28;20013;-32
2023/12/19 04:33:35;;;;;;;34.80;17.23;;;;;;;;;;5077037;28;20025;-32
2023/12/19 04:36:01;;;;;;;30.80;15.60;;;;;;;;;;5076411;28;20032;-32
2023/12/19 04:38:26;;;;;;;26.95;15.35;;;;;;;;;;5076360;28;20393;-33
2023/12/19 04:40:51;;;;;;;28.40;14.57;;;;;;;;;;5076680;28;20060;-32
2023/12/19 04:43:16;;;;;;;25.23;13.87;;;;;;;;;;5076360;28;20727;-32
2023/12/19 04:45:41;;;;;;;23.20;13.80;;;;;;;;;;5076262;28;20259;-31
2023/12/19 04:48:07;;;;;;;22.85;13.15;;;;;;;;;;5076618;28;20273;-32
2023/12/19 04:50:32;;;;;;;21.10;12.70;;;;;;;;;;5076218;28;20028;-32
2023/12/19 04:52:57;;;;;;;21.83;12.95;;;;;;;;;;5076547;28;20349;-32
2023/12/19 04:55:22;;;;;;;24.00;13.93;;;;;;;;;;5076080;28;20048;-31
2023/12/19 04:57:47;;;;;;;23.83;12.77;;;;;;;;;;5076117;28;20027;-36
2023/12/19 05:00:13;;;;;;;21.43;12.20;;;;;;;;;;5076588;28;20266;-32
2023/12/19 05:02:38;;;;;;;20.80;12.45;;;;;;;;;;5076252;28;20271;-32
2023/12/19 05:05:03;;;;;;;21.43;12.33;;;;;;;;;;5076516;28;20078;-31
2023/12/19 05:07:30;;;;;;;25.83;13.80;;;;;;;;;;5075776;28;20757;-32
2023/12/19 05:09:55;;;;;;;23.80;13.20;;;;;;;;;;5076177;28;20557;-32
2023/12/19 05:12:21;;;;;;;23.27;12.70;;;;;;;;;;5075995;28;20100;-32
2023/12/19 05:14:47;;;;;;;19.15;11.75;;;;;;;;;;5075701;28;20024;-32
2023/12/19 05:17:12;;;;;;;20.43;12.20;;;;;;;;;;5076156;28;20032;-32
2023/12/19 05:19:37;;;;;;;21.33;12.17;;;;;;;;;;5075681;28;20357;-32
2023/12/19 05:22:02;;;;;;;21.07;12.33;;;;;;;;;;5076192;28;20258;-32
2023/12/19 05:24:32;;;;;;;19.90;12.75;;;;;;;;;;5075606;28;20254;-33
2023/12/19 05:26:59;;;;;;;23.95;12.88;;;;;;;;;;5075392;28;20032;-31
2023/12/19 05:29:24;;;;;;;21.80;13.32;;;;;;;;;;5075531;28;20428;-33
2023/12/19 05:31:49;;;;;;;23.13;12.83;;;;;;;;;;5073781;28;20054;-33
2023/12/19 05:34:14;;;;;;;23.80;12.83;;;;;;;;;;5073309;28;20265;-32
2023/12/19 05:36:45;;;;;;;23.92;13.02;;;;;;;;;;5073127;28;20282;-31
2023/12/19 05:39:11;;;;;;;20.13;12.63;;;;;;;;;;5073408;28;20525;-31
2023/12/19 05:41:36;;;;;;;22.02;12.82;;;;;;;;;;5073101;28;20100;-32
2023/12/19 05:44:02;;;;;;;22.53;13.47;;;;;;;;;;5073336;28;20095;-32
2023/12/19 05:46:27;;;;;;;22.83;12.55;;;;;;;;;;5074212;28;20266;-32
2023/12/19 05:48:52;;;;;;;22.70;11.95;;;;;;;;;;5075341;28;20111;-32
2023/12/19 05:51:18;;;;;;;18.67;10.73;;;;;;;;;;5075082;28;20483;-32
2023/12/19 05:53:43;;;;;;;16.90;11.13;;;;;;;;;;5075199;28;20267;-33
2023/12/19 05:56:11;;;;;;;19.98;12.43;;;;;;;;;;5075195;28;20020;-32
2023/12/19 05:58:37;;;;;;;20.13;11.82;;;;;;;;;;5073603;28;20050;-32
2023/12/19 06:01:02;;;;;;;18.20;11.50;;;;;;;;;;5075123;28;20376;-32
2023/12/19 06:03:27;;;;;;;19.42;11.02;;;;;;;;;;5074529;28;20282;-32
2023/12/19 06:05:52;;;;;;;20.87;12.03;;;;;;;;;;5075371;28;20074;-33
2023/12/19 06:08:18;;;;;;;18.15;11.70;;;;;;;;;;5074998;28;20278;-32
2023/12/19 06:10:43;;;;;;;18.08;11.90;;;;;;;;;;5074626;28;20032;-31
2023/12/19 06:13:08;;;;;;;17.00;11.27;;;;;;;;;;5074558;28;20352;-31
2023/12/19 06:15:33;;;;;;;19.27;11.60;;;;;;;;;;5074680;28;20255;-32
2023/12/19 06:17:59;;;;;;;20.05;12.50;;;;;;;;;;5074027;28;20024;-32
2023/12/19 06:20:24;;;;;;;19.00;11.27;;;;;;;;;;5074993;28;20024;-32
2023/12/19 06:22:49;;;;;;;19.20;11.50;;;;;;;;;;5074445;28;20255;-34
2023/12/19 06:25:14;;;;;;;19.23;11.32;;;;;;;;;;5074633;28;20255;-32
2023/12/19 06:27:42;;;;;;;18.43;11.43;;;;;;;;;;5074302;28;20436;-33
2023/12/19 06:30:08;;;;;;;18.38;11.45;;;;;;;;;;5074581;28;20270;-32
2023/12/19 06:32:34;;;;;;;18.35;12.07;;;;;;;;;;5074464;28;20021;-32
2023/12/19 06:35:01;;;;;;;20.73;11.85;;;;;;;;;;5074725;28;20560;-32
2023/12/19 06:37:26;;;;;;;19.20;12.00;;;;;;;;;;5074291;28;20456;-32
2023/12/19 06:39:52;;;;;;;21.17;12.33;;;;;;;;;;5074406;28;20025;-32
2023/12/19 06:42:17;;;;;;;22.38;13.10;;;;;;;;;;5074359;28;20239;-32
2023/12/19 06:44:43;;;;;;;24.08;13.18;;;;;;;;;;5073965;28;20027;-32
2023/12/19 06:47:08;;;;;;;20.75;12.95;;;;;;;;;;5074222;28;20039;-32
2023/12/19 06:49:33;;;;;;;22.27;13.48;;;;;;;;;;5073851;28;20017;-31
2023/12/19 06:51:58;;;;;;;26.47;13.90;;;;;;;;;;5073972;28;20020;-32
2023/12/19 06:54:23;;;;;;;26.10;13.05;;;;;;;;;;5073721;28;20265;-32
2023/12/19 06:56:48;;;;;;;23.50;15.10;;;;;;;;;;5073705;28;20023;-33
2023/12/19 06:59:14;;;;;;;23.87;14.33;;;;;;;;;;5073864;28;20335;-32
2023/12/19 07:01:39;;;;;;;22.95;13.82;;;;;;;;;;5073991;28;20258;-32
2023/12/19 07:04:04;;;;;;;28.60;14.93;;;;;;;;;;5073580;28;20553;-33
2023/12/19 07:06:30;;;;;;;31.50;15.75;;;;;;;;;;5073932;28;20258;-33
2023/12/19 07:08:55;;;;;;;28.63;15.13;;;;;;;;;;5073907;28;20027;-32
2023/12/19 07:11:21;;;;;;;25.80;15.05;;;;;;;;;;5073593;28;20025;-32
2023/12/19 07:13:46;;;;;;;28.15;15.95;;;;;;;;;;5073815;28;20016;-32
2023/12/19 07:16:15;;;;;;;28.17;15.73;;;;;;;;;;5073709;28;20021;-32
2023/12/19 07:18:40;;;;;;;28.05;15.20;;;;;;;;;;5073797;28;20404;-32
2023/12/19 07:21:06;;;;;;;26.83;15.50;;;;;;;;;;5073663;28;20032;-32
2023/12/19 07:23:31;;;;;;;31.30;16.05;;;;;;;;;;5073466;28;20643;-33
2023/12/19 07:25:56;;;;;;;29.20;16.07;;;;;;;;;;5074028;28;20016;-32
2023/12/19 07:28:21;;;;;;;29.83;16.30;;;;;;;;;;5073449;28;20800;-33
2023/12/19 07:30:46;;;;;;;31.98;16.23;;;;;;;;;;5072993;28;20258;-33
2023/12/19 07:33:12;;;;;;;27.57;15.80;;;;;;;;;;5073371;28;20357;-32
2023/12/19 07:35:37;;;;;;;31.35;16.42;;;;;;;;;;5072952;28;20401;-33
2023/12/19 07:38:02;;;;;;;29.73;16.17;;;;;;;;;;5072891;28;20395;-32
2023/12/19 07:40:27;;;;;;;31.95;16.23;;;;;;;;;;5073463;28;20269;-33
2023/12/19 07:42:53;;;;;;;26.07;16.20;;;;;;;;;;5073229;28;20017;-33
2023/12/19 07:45:18;;;;;;;32.67;16.77;;;;;;;;;;5073468;28;20278;-32
2023/12/19 07:47:44;;;;;;;31.27;16.47;;;;;;;;;;5073687;28;20114;-32
2023/12/19 07:50:10;;;;;;;34.53;15.52;;;;;;;;;;5073456;28;20629;-33
2023/12/19 07:52:36;;;;;;;32.70;17.65;;;;;;;;;;5073518;28;20046;-32
2023/12/19 07:55:04;;;;;;;35.10;16.95;;;;;;;;;;5073296;28;20473;-32
2023/12/19 07:57:29;;;;;;;28.90;15.63;;;;;;;;;;5073310;28;20471;-33
2023/12/19 07:59:54;;;;;;;31.73;16.80;;;;;;;;;;5073155;28;20017;-32
2023/12/19 08:02:19;;;;;;;27.58;15.70;;;;;;;;;;5073043;28;20254;-32
2023/12/19 08:04:44;;;;;;;28.70;15.73;;;;;;;;;;5073236;28;20052;-32
2023/12/19 08:07:10;;;;;;;30.08;16.02;;;;;;;;;;5073020;28;20073;-33
2023/12/19 08:09:35;;;;;;;30.00;16.10;;;;;;;;;;5072650;28;20293;-32
2023/12/19 08:12:00;;;;;;;27.83;15.13;;;;;;;;;;5072739;28;20266;-32
2023/12/19 08:14:25;;;;;;;30.20;14.55;;;;;;;;;;5072884;28;20349;-32
2023/12/19 08:16:50;;;;;;;28.92;14.70;;;;;;;;;;5071535;28;20113;-33
2023/12/19 08:19:18;;;;;;;28.02;15.35;;;;;;;;;;5072973;28;20468;-33
2023/12/19 08:22:01;;;;;;;28.98;14.68;;;;;;;;;;5072907;28;20376;-33
2023/12/19 08:24:26;;;;;;;25.23;14.93;;;;;;;;;;5072648;28;20028;-32
2023/12/19 08:26:52;;;;;;;36.77;15.00;;;;;;;;;;5071682;28;20070;-33
2023/12/19 08:29:18;;;;;;;26.35;14.85;;;;;;;;;;5071671;28;20342;-32
2023/12/19 08:31:46;;;;;;;20.25;13.75;;;;;;;;;;5072914;28;20455;-33
2023/12/19 08:34:11;;;;;;;22.75;13.25;;;;;;;;;;5072435;28;20103;-32
2023/12/19 08:36:37;;;;;;;21.98;14.40;;;;;;;;;;5071419;28;20103;-33
2023/12/19 08:39:02;;;;;;;35.00;15.33;;;;;;;;;;5073159;28;20024;-33
2023/12/19 08:41:27;;;;;;;27.95;14.18;;;;;;;;;;5074455;28;20254;-32
2023/12/19 08:43:53;;;;;;;25.55;13.52;;;;;;;;;;5075121;28;20399;-33
2023/12/19 08:46:18;;;;;;;25.97;13.27;;;;;;;;;;5076812;28;20055;-33
2023/12/19 08:48:43;;;;;;;23.77;13.82;;;;;;;;;;5076095;28;20618;-32
2023/12/19 08:51:09;;;;;;;24.90;13.38;;;;;;;;;;5076204;28;20128;-32
2023/12/19 08:53:34;;;;;;;26.33;14.43;;;;;;;;;;5076153;28;20027;-33
2023/12/19 08:55:59;;;;;;;25.00;13.53;;;;;;;;;;5076574;28;20157;-32
2023/12/19 08:58:24;;;;;;;28.07;14.07;;;;;;;;;;5076066;28;20251;-32
2023/12/19 09:00:50;;;;;;;27.30;13.77;;;;;;;;;;5075996;28;20254;-32
2023/12/19 09:03:15;;;;;;;21.10;12.07;;;;;;;;;;5075812;28;20315;-32
2023/12/19 09:05:40;;;;;;;23.45;13.05;;;;;;;;;;5076224;28;20024;-32
2023/12/19 09:08:05;;;;;;;21.30;12.90;;;;;;;;;;5076060;28;20086;-32
2023/12/19 09:10:30;;;;;;;20.87;12.97;;;;;;;;;;5075736;28;20437;-32
2023/12/19 09:12:56;;;;;;;23.10;12.93;;;;;;;;;;5075702;28;20293;-33
2023/12/19 09:15:21;;;;;;;24.27;13.33;;;;;;;;;;5075990;28;20025;-32
2023/12/19 09:17:46;;;;;;;21.90;11.95;;;;;;;;;;5075798;28;20761;-33
2023/12/19 09:20:11;;;;;;;22.67;12.00;;;;;;;;;;5075642;28;20490;-33
2023/12/19 09:22:36;;;;;;;20.98;11.98;;;;;;;;;;5075837;28;20258;-32
2023/12/19 09:25:02;;;;;;;18.33;10.97;;;;;;;;;;5075758;28;20027;-32
2023/12/19 09:27:27;;;;;;;18.63;11.88;;;;;;;;;;5075630;28;20263;-32
2023/12/19 09:29:52;;;;;;;18.87;12.33;;;;;;;;;;5075861;28;20016;-33
2023/12/19 09:32:18;;;;;;;21.35;11.32;;;;;;;;;;5075668;28;20324;-33
2023/12/19 09:34:44;;;;;;;18.33;11.23;;;;;;;;;;5075612;28;20463;-33
2023/12/19 09:37:09;;;;;;;18.92;11.95;;;;;;;;;;5075378;28;20032;-33
2023/12/19 09:39:34;;;;;;;18.40;11.90;;;;;;;;;;5075373;28;20053;-32
2023/12/19 09:42:00;;;;;;;20.70;11.63;;;;;;;;;;5074978;28;20315;-33
2023/12/19 09:44:28;;;;;;;18.50;11.05;;;;;;;;;;5075212;28;20024;-33
2023/12/19 09:46:53;;;;;;;15.10;9.98;;;;;;;;;;5075045;28;20025;-33
2023/12/19 09:49:21;;;;;;;16.15;11.07;;;;;;;;;;5074943;28;20029;-33
2023/12/19 09:51:48;;;;;;;16.15;11.02;;;;;;;;;;5074948;28;20486;-32
2023/12/19 09:54:13;;;;;;;15.77;10.73;;;;;;;;;;5074318;28;20052;-32
2023/12/19 09:56:39;;;;;;;18.87;10.73;;;;;;;;;;5075413;28;20048;-33
2023/12/19 09:59:04;;;;;;;17.67;10.95;;;;;;;;;;5075008;28;20266;-33
2023/12/19 10:01:29;;;;;;;18.65;10.05;;;;;;;;;;5074698;28;20017;-32
2023/12/19 10:03:55;;;;;;;16.30;10.48;;;;;;;;;;5074572;28;20079;-32
2023/12/19 10:06:24;;;;;;;18.25;10.75;;;;;;;;;;5074512;28;20405;-32
2023/12/19 10:08:52;;;;;;;17.33;11.38;;;;;;;;;;5074613;28;20028;-33
2023/12/19 10:11:17;;;;;;;16.48;10.60;;;;;;;;;;5074581;28;20062;-32
2023/12/19 10:13:43;;;;;;;20.38;11.05;;;;;;;;;;5074719;28;20074;-33
2023/12/19 10:16:11;;;;;;;17.27;10.53;;;;;;;;;;5074069;28;20523;-33
2023/12/19 10:18:37;;;;;;;15.15;10.57;;;;;;;;;;5074838;28;20338;-33
2023/12/19 10:21:04;;;;;;;15.63;10.38;;;;;;;;;;5074369;28;20017;-32
2023/12/19 10:23:29;;;;;;;15.35;10.30;;;;;;;;;;5074421;28;20062;-32
2023/12/19 10:25:55;;;;;;;16.52;9.85;;;;;;;;;;5074902;28;20020;-32
2023/12/19 10:28:20;;;;;;;17.53;10.30;;;;;;;;;;5074859;28;20024;-32
2023/12/19 10:30:45;;;;;;;18.97;10.40;;;;;;;;;;5074275;28;20338;-33
2023/12/19 10:33:10;;;;;;;18.13;10.50;;;;;;;;;;5074499;28;20255;-33
2023/12/19 10:35:39;;;;;;;18.50;10.30;;;;;;;;;;5073698;28;20270;-32
2023/12/19 10:38:05;;;;;;;17.48;10.32;;;;;;;;;;5071316;28;20267;-33
2023/12/19 10:40:31;;;;;;;17.42;10.23;;;;;;;;;;5073250;28;20066;-32
2023/12/19 10:42:56;;;;;;;15.98;10.10;;;;;;;;;;5074246;28;20024;-33
2023/12/19 10:45:23;;;;;;;17.75;10.15;;;;;;;;;;5073964;28;20024;-33
2023/12/19 10:47:48;;;;;;;16.67;10.35;;;;;;;;;;5073244;28;20012;-36
2023/12/19 10:50:13;;;;;;;15.52;10.13;;;;;;;;;;5073947;28;20521;-32
2023/12/19 10:52:39;;;;;;;13.50;9.32;;;;;;;;;;5072295;28;20060;-33
2023/12/19 10:55:09;;;;;;;12.95;8.50;;;;;;;;;;5074088;28;20101;-32
2023/12/19 10:57:36;;;;;;;13.98;9.52;;;;;;;;;;5072266;28;20027;-33
2023/12/19 11:00:03;;;;;;;14.38;9.52;;;;;;;;;;5072425;28;20047;-32
2023/12/19 11:02:38;;;;;;;14.02;9.50;;;;;;;;;;5073771;28;20433;-35
2023/12/19 11:05:11;;;;;;;15.82;10.50;;;;;;;;;;5073585;28;20009;-33
2023/12/19 11:07:37;;;;;;;15.52;10.32;;;;;;;;;;5073989;28;20039;-33
2023/12/19 11:10:06;;;;;;;19.02;10.18;;;;;;;;;;5073714;28;20415;-33
2023/12/19 11:12:31;;;;;;;16.45;9.20;;;;;;;;;;5072635;28;20029;-33
2023/12/19 11:14:57;;;;;;;14.88;8.90;;;;;;;;;;5073225;28;20481;-32
2023/12/19 11:17:26;;;;;;;16.02;9.95;;;;;;;;;;5072584;28;20078;-33
2023/12/19 11:19:56;;;;;;;14.13;9.93;;;;;;;;;;5073361;28;20009;-32
2023/12/19 11:22:30;;;;;;;15.65;9.82;;;;;;;;;;5073783;28;20483;-33
2023/12/19 11:25:01;;;;;;;14.32;9.52;;;;;;;;;;5073310;28;20023;-33
2023/12/19 11:27:30;;;;;;;15.55;10.02;;;;;;;;;;5072031;28;20463;-33
2023/12/19 11:29:55;;;;;;;16.08;9.43;;;;;;;;;;5073239;28;20043;-33
2023/12/19 11:32:26;;;;;;;15.13;9.98;;;;;;;;;;5073439;28;20025;-33
2023/12/19 11:34:51;;;;;;;15.13;10.18;;;;;;;;;;5073219;28;20490;-32
2023/12/19 11:37:20;;;;;;;14.35;9.05;;;;;;;;;;5073407;28;20021;-33
2023/12/19 11:39:45;;;;;;;15.98;9.35;;;;;;;;;;5073270;28;20020;-33
2023/12/19 11:42:30;;;;;;;13.27;8.77;;;;;;;;;;5073301;28;20086;-33
2023/12/19 11:44:55;;;;;;;14.23;9.05;;;;;;;;;;5073669;28;20259;-32
2023/12/19 11:47:20;;;;;;;14.20;9.37;;;;;;;;;;5073283;28;20047;-32
2023/12/19 11:49:45;;;;;;;15.43;9.70;;;;;;;;;;5073323;28;20330;-33
2023/12/19 11:52:29;;;;;;;13.27;8.68;;;;;;;;;;5073207;28;20032;-33
2023/12/19 11:54:54;;;;;;;14.65;8.98;;;;;;;;;;5073131;28;20033;-33
2023/12/19 11:57:19;;;;;;;15.32;9.05;;;;;;;;;;5072888;28;20372;-33
2023/12/19 11:59:46;;;;;;;14.40;9.30;;;;;;;;;;5073981;28;20091;-33
2023/12/19 12:02:11;;;;;;;12.25;8.82;;;;;;;;;;5073225;28;20472;-31
2023/12/19 12:04:36;;;;;;;16.23;8.30;;;;;;;;;;5073361;28;20034;-33
2023/12/19 12:07:02;;;;;;;13.10;8.30;;;;;;;;;;5073310;28;20353;-33
2023/12/19 12:09:27;;;;;;;12.60;8.13;;;;;;;;;;5073079;28;20247;-33
2023/12/19 12:11:54;;;;;;;13.35;8.38;;;;;;;;;;5073187;28;20072;-33
2023/12/19 12:14:21;;;;;;;11.73;8.32;;;;;;;;;;5071980;28;20055;-33
2023/12/19 12:16:46;;;;;;;11.98;7.75;;;;;;;;;;5075341;28;20074;-33
2023/12/19 12:19:19;;;;;;;12.88;7.95;;;;;;;;;;5076825;28;20426;-33
2023/12/19 12:21:44;;;;;;;13.73;8.38;;;;;;;;;;5077019;28;20020;-33
2023/12/19 12:24:16;;;;;;;12.75;8.35;;;;;;;;;;5076711;28;20521;-32
2023/12/19 12:26:41;;;;;;;13.38;7.93;;;;;;;;;;5076707;28;20444;-33
2023/12/19 12:29:06;;;;;;;11.98;7.63;;;;;;;;;;5077422;28;20021;-32
2023/12/19 12:31:32;;;;;;;10.20;7.13;;;;;;;;;;5076611;28;20024;-32
2023/12/19 12:33:57;;;;;;;10.48;7.10;;;;;;;;;;5075990;28;20254;-33
2023/12/19 12:36:22;;;;;;;11.35;7.47;;;;;;;;;;5076248;28;20099;-33
2023/12/19 12:38:53;;;;;;;9.90;7.28;;;;;;;;;;5076336;28;20021;-32
2023/12/19 12:41:20;;;;;;;8.77;6.65;;;;;;;;;;5076453;28;20349;-33
2023/12/19 12:43:51;;;;;;;14.07;7.40;;;;;;;;;;5076668;28;20020;-33
2023/12/19 12:46:19;;;;;;;9.07;6.47;;;;;;;;;;5075064;28;20013;-32
2023/12/19 12:48:53;;;;;;;11.77;6.80;;;;;;;;;;5076285;28;20116;-33
2023/12/19 12:51:19;;;;;;;13.98;6.68;;;;;;;;;;5076222;28;20557;-33
2023/12/19 12:53:44;;;;;;;8.05;6.10;;;;;;;;;;5076080;28;20043;-33
2023/12/19 12:56:13;;;;;;;8.30;6.05;;;;;;;;;;5076291;28;20436;-32
2023/12/19 12:58:38;;;;;;;8.63;5.72;;;;;;;;;;5076042;28;20024;-32
2023/12/19 13:01:05;;;;;;;8.55;6.05;;;;;;;;;;5075994;28;20024;-33
2023/12/19 13:03:31;;;;;;;8.25;5.78;;;;;;;;;;5074690;28;20037;-33
2023/12/19 13:06:00;;;;;;;11.40;6.03;;;;;;;;;;5076158;28;20490;-33
2023/12/19 13:08:25;;;;;;;7.20;5.68;;;;;;;;;;5076126;28;20021;-33
2023/12/19 13:10:51;;;;;;;7.40;5.50;;;;;;;;;;5075979;28;20019;-33
2023/12/19 13:13:16;;;;;;;10.33;5.43;;;;;;;;;;5075053;28;20016;-33
2023/12/19 13:15:41;;;;;;;7.72;5.78;;;;;;;;;;5073293;28;20293;-32
2023/12/19 13:18:08;;;;;;;9.47;6.37;;;;;;;;;;5073560;28;20020;-33
2023/12/19 13:20:34;;;;;;;8.00;5.70;;;;;;;;;;5072272;28;20338;-33
2023/12/19 13:23:00;;;;;;;9.52;6.07;;;;;;;;;;5073482;28;20012;-33
2023/12/19 13:25:27;;;;;;;9.30;6.10;;;;;;;;;;5073167;28;20063;-33
2023/12/19 13:27:52;;;;;;;8.32;5.93;;;;;;;;;;5072445;28;20043;-33
2023/12/19 13:30:17;;;;;;;9.43;5.85;;;;;;;;;;5075584;28;20463;-33
2023/12/19 13:32:42;;;;;;;8.25;6.60;;;;;;;;;;5075621;28;20024;-32
2023/12/19 13:35:08;;;;;;;7.53;5.70;;;;;;;;;;5075405;28;20027;-33
2023/12/19 13:37:33;;;;;;;8.95;6.20;;;;;;;;;;5075066;28;20306;-33
2023/12/19 13:39:59;;;;;;;8.48;6.22;;;;;;;;;;5075249;28;20021;-33
2023/12/19 13:42:24;;;;;;;8.65;5.82;;;;;;;;;;5075577;28;20017;-33
2023/12/19 13:44:49;;;;;;;12.32;6.72;;;;;;;;;;5075729;28;20436;-33
2023/12/19 13:47:15;;;;;;;7.60;6.27;;;;;;;;;;5075166;28;20408;-33
2023/12/19 13:49:40;;;;;;;10.18;6.60;;;;;;;;;;5075376;28;20267;-33
2023/12/19 13:52:05;;;;;;;8.50;6.22;;;;;;;;;;5075233;28;20028;-33
2023/12/19 13:54:30;;;;;;;10.17;6.50;;;;;;;;;;5075058;28;20020;-33
2023/12/19 13:56:56;;;;;;;9.70;6.70;;;;;;;;;;5075414;28;20314;-33
2023/12/19 13:59:22;;;;;;;7.53;6.15;;;;;;;;;;5074836;28;20259;-32
2023/12/19 14:01:47;;;;;;;8.23;6.07;;;;;;;;;;5075354;28;20070;-33
2023/12/19 14:04:13;;;;;;;8.37;5.80;;;;;;;;;;5074648;28;20279;-33
2023/12/19 14:06:38;;;;;;;7.07;5.30;;;;;;;;;;5074912;28;20254;-33
2023/12/19 14:09:03;;;;;;;6.20;5.40;;;;;;;;;;5074610;28;20073;-33
2023/12/19 14:11:29;;;;;;;8.07;5.40;;;;;;;;;;5074694;28;20254;-33
2023/12/19 14:13:54;;;;;;;7.68;5.50;;;;;;;;;;5074602;28;20251;-32